createdAt,value
2016-06-03T00:00:17.388Z,0
2016-06-03T00:01:17.468Z,0
2016-06-03T00:02:17.377Z,0
2016-06-03T00:03:17.224Z,0
2016-06-03T00:04:17.351Z,0
2016-06-03T00:05:17.338Z,0
2016-06-03T00:06:17.372Z,0
2016-06-03T00:07:17.375Z,0
2016-06-03T00:08:17.378Z,0
2016-06-03T00:09:17.380Z,0
2016-06-03T00:10:17.227Z,0
2016-06-03T00:11:17.400Z,0
2016-06-03T00:12:17.373Z,0
2016-06-03T00:13:17.406Z,0
2016-06-03T00:14:17.409Z,0
2016-06-03T00:15:17.381Z,0
2016-06-03T00:16:17.399Z,0
2016-06-03T00:17:17.433Z,0
2016-06-03T00:18:17.420Z,0
2016-06-03T00:19:17.392Z,0
2016-06-03T00:20:17.255Z,0
2016-06-03T00:21:17.396Z,0
2016-06-03T00:22:17.416Z,0
2016-06-03T00:23:17.418Z,0
2016-06-03T00:24:17.436Z,0
2016-06-03T00:25:17.454Z,0
2016-06-03T00:26:17.441Z,0
2016-06-03T00:27:17.429Z,0
2016-06-03T00:28:17.446Z,0
2016-06-03T00:29:17.466Z,0
2016-06-03T00:30:17.452Z,0
2016-06-03T00:31:17.439Z,0
2016-06-03T00:32:17.458Z,0
2016-06-03T00:33:17.273Z,0
2016-06-03T00:34:17.495Z,0
2016-06-03T00:35:17.450Z,0
2016-06-03T00:36:17.468Z,0
2016-06-03T00:37:17.456Z,0
2016-06-03T00:38:17.473Z,0
2016-06-03T00:39:17.305Z,0
2016-06-03T00:40:18.151Z,0
2016-06-03T00:41:17.498Z,0
2016-06-03T00:42:17.314Z,0
2016-06-03T00:43:17.487Z,0
2016-06-03T00:44:17.505Z,0
2016-06-03T00:45:17.492Z,0
2016-06-03T00:46:17.495Z,0
2016-06-03T00:47:17.482Z,0
2016-06-03T00:48:17.361Z,0
2016-06-03T00:49:17.535Z,0
2016-06-03T00:50:17.491Z,0
2016-06-03T00:51:17.493Z,0
2016-06-03T00:52:17.496Z,0
2016-06-03T00:53:17.483Z,0
2016-06-03T00:54:17.548Z,0
2016-06-03T00:55:17.254Z,0
2016-06-03T00:56:17.522Z,0
2016-06-03T00:57:17.385Z,0
2016-06-03T00:58:17.528Z,0
2016-06-03T00:59:17.515Z,0
2016-06-03T01:00:17.361Z,0
2016-06-03T01:01:17.520Z,0
2016-06-03T01:02:17.523Z,0
2016-06-03T01:03:17.541Z,0
2016-06-03T01:04:17.512Z,0
2016-06-03T01:05:17.546Z,0
2016-06-03T01:06:17.549Z,0
2016-06-03T01:07:17.584Z,0
2016-06-03T01:08:17.540Z,0
2016-06-03T01:09:17.526Z,0
2016-06-03T01:10:18.342Z,0
2016-06-03T01:11:17.547Z,0
2016-06-03T01:12:17.581Z,0
2016-06-03T01:13:17.552Z,0
2016-06-03T01:14:17.555Z,0
2016-06-03T01:15:17.558Z,0
2016-06-03T01:16:17.561Z,0
2016-06-03T01:17:17.578Z,0
2016-06-03T01:18:17.581Z,0
2016-06-03T01:19:17.569Z,0
2016-06-03T01:20:17.571Z,0
2016-06-03T01:21:17.574Z,0
2016-06-03T01:22:17.577Z,0
2016-06-03T01:23:17.595Z,0
2016-06-03T01:24:17.613Z,0
2016-06-03T01:25:17.616Z,0
2016-06-03T01:26:17.635Z,0
2016-06-03T01:27:17.449Z,0
2016-06-03T01:28:17.608Z,0
2016-06-03T01:29:17.579Z,0
2016-06-03T01:30:17.613Z,0
2016-06-03T01:31:17.601Z,0
2016-06-03T01:32:17.682Z,0
2016-06-03T01:33:17.543Z,0
2016-06-03T01:34:17.640Z,0
2016-06-03T01:35:17.627Z,0
2016-06-03T01:36:17.661Z,0
2016-06-03T01:37:17.632Z,0
2016-06-03T01:38:17.620Z,0
2016-06-03T01:39:17.637Z,0
2016-06-03T01:40:18.313Z,0
2016-06-03T01:41:17.722Z,0
2016-06-03T01:42:17.630Z,0
2016-06-03T01:43:17.633Z,0
2016-06-03T01:44:17.636Z,0
2016-06-03T01:45:17.654Z,0
2016-06-03T01:46:17.641Z,0
2016-06-03T01:47:17.628Z,0
2016-06-03T01:48:17.678Z,0
2016-06-03T01:49:17.649Z,0
2016-06-03T01:50:17.667Z,0
2016-06-03T01:51:17.670Z,0
2016-06-03T01:52:17.673Z,0
2016-06-03T01:53:17.692Z,0
2016-06-03T01:54:17.693Z,0
2016-06-03T01:55:18.415Z,0
2016-06-03T01:56:17.715Z,0
2016-06-03T01:57:17.702Z,0
2016-06-03T01:58:17.673Z,0
2016-06-03T01:59:17.676Z,0
2016-06-03T02:00:17.694Z,0
2016-06-03T02:01:17.697Z,0
2016-06-03T02:02:17.668Z,0
2016-06-03T02:03:17.703Z,0
2016-06-03T02:04:17.705Z,0
2016-06-03T02:05:17.707Z,0
2016-06-03T02:06:17.710Z,0
2016-06-03T02:07:17.698Z,0
2016-06-03T02:08:17.715Z,0
2016-06-03T02:09:17.704Z,0
2016-06-03T02:10:18.159Z,0
2016-06-03T02:11:17.724Z,0
2016-06-03T02:12:17.711Z,0
2016-06-03T02:13:17.714Z,0
2016-06-03T02:14:17.732Z,0
2016-06-03T02:15:17.579Z,0
2016-06-03T02:16:17.581Z,0
2016-06-03T02:17:17.740Z,0
2016-06-03T02:18:17.727Z,0
2016-06-03T02:19:17.449Z,0
2016-06-03T02:20:17.623Z,0
2016-06-03T02:21:17.766Z,0
2016-06-03T02:22:17.738Z,0
2016-06-03T02:23:17.756Z,0
2016-06-03T02:24:17.758Z,0
2016-06-03T02:25:17.621Z,0
2016-06-03T02:26:17.764Z,0
2016-06-03T02:27:17.751Z,0
2016-06-03T02:28:17.769Z,0
2016-06-03T02:29:17.772Z,0
2016-06-03T02:30:17.760Z,0
2016-06-03T02:31:17.794Z,0
2016-06-03T02:32:17.780Z,0
2016-06-03T02:33:17.783Z,0
2016-06-03T02:34:17.786Z,0
2016-06-03T02:35:17.821Z,0
2016-06-03T02:36:17.807Z,0
2016-06-03T02:37:17.779Z,0
2016-06-03T02:38:17.796Z,0
2016-06-03T02:39:17.815Z,0
2016-06-03T02:40:17.849Z,0
2016-06-03T02:41:17.851Z,0
2016-06-03T02:42:17.807Z,0
2016-06-03T02:43:17.795Z,0
2016-06-03T02:44:17.797Z,0
2016-06-03T02:45:17.831Z,0
2016-06-03T02:46:17.818Z,0
2016-06-03T02:47:17.853Z,0
2016-06-03T02:48:17.808Z,0
2016-06-03T02:49:17.841Z,0
2016-06-03T02:50:17.828Z,0
2016-06-03T02:51:17.831Z,0
2016-06-03T02:52:17.850Z,0
2016-06-03T02:53:17.821Z,0
2016-06-03T02:54:17.808Z,0
2016-06-03T02:55:17.999Z,0
2016-06-03T02:56:17.877Z,0
2016-06-03T02:57:17.832Z,0
2016-06-03T02:58:17.850Z,0
2016-06-03T02:59:17.525Z,0
2016-06-03T03:00:17.825Z,0
2016-06-03T03:01:17.843Z,0
2016-06-03T03:02:17.705Z,0
2016-06-03T03:03:17.879Z,0
2016-06-03T03:04:17.710Z,0
2016-06-03T03:05:17.838Z,0
2016-06-03T03:06:17.871Z,0
2016-06-03T03:07:17.875Z,0
2016-06-03T03:08:17.909Z,0
2016-06-03T03:09:17.926Z,0
2016-06-03T03:10:17.586Z,0
2016-06-03T03:11:17.901Z,0
2016-06-03T03:12:17.920Z,0
2016-06-03T03:13:17.876Z,0
2016-06-03T03:14:17.893Z,0
2016-06-03T03:15:17.912Z,0
2016-06-03T03:16:17.867Z,0
2016-06-03T03:17:17.933Z,0
2016-06-03T03:18:17.920Z,0
2016-06-03T03:19:17.906Z,0
2016-06-03T03:20:17.925Z,0
2016-06-03T03:21:17.943Z,0
2016-06-03T03:22:17.915Z,0
2016-06-03T03:23:17.903Z,0
2016-06-03T03:24:17.905Z,0
2016-06-03T03:25:18.673Z,0
2016-06-03T03:26:17.942Z,0
2016-06-03T03:27:17.928Z,0
2016-06-03T03:28:17.946Z,0
2016-06-03T03:29:17.965Z,0
2016-06-03T03:30:17.936Z,0
2016-06-03T03:31:17.907Z,0
2016-06-03T03:32:17.942Z,0
2016-06-03T03:33:17.944Z,0
2016-06-03T03:34:17.979Z,0
2016-06-03T03:35:17.949Z,0
2016-06-03T03:36:17.969Z,0
2016-06-03T03:37:17.783Z,0
2016-06-03T03:38:17.942Z,5
2016-06-03T03:39:17.960Z,5
2016-06-03T03:40:18.448Z,5
2016-06-03T03:41:17.998Z,5
2016-06-03T03:42:17.937Z,5
2016-06-03T03:43:17.940Z,5
2016-06-03T03:44:17.958Z,5
2016-06-03T03:45:17.977Z,5
2016-06-03T03:46:17.995Z,5
2016-06-03T03:47:17.982Z,5
2016-06-03T03:48:17.953Z,5
2016-06-03T03:49:17.987Z,10
2016-06-03T03:50:18.022Z,10
2016-06-03T03:51:17.978Z,10
2016-06-03T03:52:17.965Z,10
2016-06-03T03:53:17.998Z,10
2016-06-03T03:54:18.033Z,10
2016-06-03T03:55:19.316Z,10
2016-06-03T03:56:18.038Z,10
2016-06-03T03:57:18.008Z,10
2016-06-03T03:58:18.012Z,10
2016-06-03T03:59:18.014Z,10
2016-06-03T04:00:18.017Z,10
2016-06-03T04:01:18.020Z,10
2016-06-03T04:02:18.023Z,10
2016-06-03T04:03:17.994Z,10
2016-06-03T04:04:18.027Z,10
2016-06-03T04:05:18.046Z,10
2016-06-03T04:06:18.065Z,15
2016-06-03T04:07:18.004Z,15
2016-06-03T04:08:18.024Z,15
2016-06-03T04:09:18.041Z,15
2016-06-03T04:10:18.559Z,15
2016-06-03T04:11:17.890Z,15
2016-06-03T04:12:18.034Z,15
2016-06-03T04:13:18.037Z,20
2016-06-03T04:14:18.040Z,20
2016-06-03T04:15:17.870Z,20
2016-06-03T04:16:18.028Z,25
2016-06-03T04:17:18.047Z,25
2016-06-03T04:18:18.065Z,30
2016-06-03T04:19:18.053Z,30
2016-06-03T04:20:18.071Z,30
2016-06-03T04:21:18.089Z,30
2016-06-03T04:22:18.045Z,30
2016-06-03T04:23:18.064Z,35
2016-06-03T04:24:18.067Z,30
2016-06-03T04:25:17.819Z,30
2016-06-03T04:26:18.072Z,30
2016-06-03T04:27:18.105Z,30
2016-06-03T04:28:18.092Z,30
2016-06-03T04:29:18.080Z,30
2016-06-03T04:30:18.083Z,30
2016-06-03T04:31:18.100Z,30
2016-06-03T04:32:18.088Z,35
2016-06-03T04:33:18.106Z,35
2016-06-03T04:34:18.094Z,35
2016-06-03T04:35:18.080Z,35
2016-06-03T04:36:18.099Z,40
2016-06-03T04:37:18.132Z,40
2016-06-03T04:38:18.119Z,40
2016-06-03T04:39:18.121Z,40
2016-06-03T04:40:18.579Z,40
2016-06-03T04:41:18.159Z,40
2016-06-03T04:42:17.959Z,40
2016-06-03T04:43:18.211Z,40
2016-06-03T04:44:18.104Z,40
2016-06-03T04:45:17.967Z,45
2016-06-03T04:46:18.125Z,45
2016-06-03T04:47:18.160Z,50
2016-06-03T04:48:18.131Z,45
2016-06-03T04:49:18.148Z,45
2016-06-03T04:50:18.151Z,50
2016-06-03T04:51:18.154Z,50
2016-06-03T04:52:18.454Z,50
2016-06-03T04:53:17.988Z,50
2016-06-03T04:54:18.194Z,55
2016-06-03T04:55:18.306Z,55
2016-06-03T04:56:17.997Z,55
2016-06-03T04:57:18.170Z,60
2016-06-03T04:58:18.205Z,60
2016-06-03T04:59:18.161Z,60
2016-06-03T05:00:18.194Z,65
2016-06-03T05:01:18.165Z,65
2016-06-03T05:02:18.200Z,70
2016-06-03T05:03:18.233Z,70
2016-06-03T05:04:18.189Z,70
2016-06-03T05:05:18.176Z,75
2016-06-03T05:06:18.210Z,75
2016-06-03T05:07:18.182Z,80
2016-06-03T05:08:18.216Z,80
2016-06-03T05:09:18.218Z,80
2016-06-03T05:10:18.596Z,80
2016-06-03T05:11:18.193Z,85
2016-06-03T05:12:18.211Z,85
2016-06-03T05:13:18.229Z,85
2016-06-03T05:14:18.216Z,85
2016-06-03T05:15:18.235Z,90
2016-06-03T05:16:18.253Z,95
2016-06-03T05:17:18.223Z,100
2016-06-03T05:18:18.242Z,100
2016-06-03T05:19:18.261Z,105
2016-06-03T05:20:18.232Z,105
2016-06-03T05:21:18.234Z,110
2016-06-03T05:22:18.253Z,110
2016-06-03T05:23:18.256Z,115
2016-06-03T05:24:18.259Z,120
2016-06-03T05:25:18.542Z,120
2016-06-03T05:26:18.248Z,125
2016-06-03T05:27:18.251Z,120
2016-06-03T05:28:18.254Z,120
2016-06-03T05:29:18.100Z,120
2016-06-03T05:30:18.275Z,130
2016-06-03T05:31:18.278Z,125
2016-06-03T05:32:18.281Z,130
2016-06-03T05:33:18.266Z,135
2016-06-03T05:34:18.316Z,135
2016-06-03T05:35:18.288Z,140
2016-06-03T05:36:18.275Z,140
2016-06-03T05:37:18.137Z,145
2016-06-03T05:38:18.327Z,145
2016-06-03T05:39:18.330Z,145
2016-06-03T05:40:19.036Z,145
2016-06-03T05:41:18.351Z,150
2016-06-03T05:42:18.323Z,155
2016-06-03T05:43:18.357Z,155
2016-06-03T05:44:18.329Z,160
2016-06-03T05:45:18.331Z,160
2016-06-03T05:46:18.318Z,160
2016-06-03T05:47:18.352Z,160
2016-06-03T05:48:18.355Z,165
2016-06-03T05:49:18.342Z,165
2016-06-03T05:50:18.345Z,165
2016-06-03T05:51:18.332Z,175
2016-06-03T05:52:18.397Z,170
2016-06-03T05:53:18.399Z,170
2016-06-03T05:54:18.386Z,175
2016-06-03T05:55:18.530Z,180
2016-06-03T05:56:18.360Z,185
2016-06-03T05:57:18.363Z,185
2016-06-03T05:58:18.350Z,190
2016-06-03T05:59:18.384Z,190
2016-06-03T06:00:18.371Z,195
2016-06-03T06:01:18.374Z,195
2016-06-03T06:02:18.377Z,195
2016-06-03T06:03:18.411Z,195
2016-06-03T06:04:18.429Z,190
2016-06-03T06:05:18.385Z,190
2016-06-03T06:06:18.419Z,190
2016-06-03T06:07:18.266Z,190
2016-06-03T06:08:18.424Z,195
2016-06-03T06:09:18.411Z,195
2016-06-03T06:10:18.304Z,195
2016-06-03T06:11:18.433Z,190
2016-06-03T06:12:18.293Z,190
2016-06-03T06:13:18.421Z,185
2016-06-03T06:14:18.471Z,180
2016-06-03T06:15:18.443Z,190
2016-06-03T06:16:18.476Z,200
2016-06-03T06:17:18.464Z,205
2016-06-03T06:18:18.467Z,210
2016-06-03T06:19:18.454Z,210
2016-06-03T06:20:18.472Z,220
2016-06-03T06:21:18.459Z,225
2016-06-03T06:22:18.478Z,225
2016-06-03T06:23:18.496Z,225
2016-06-03T06:24:18.514Z,225
2016-06-03T06:25:18.204Z,215
2016-06-03T06:26:18.489Z,215
2016-06-03T06:27:18.507Z,220
2016-06-03T06:28:18.524Z,225
2016-06-03T06:29:18.527Z,230
2016-06-03T06:30:18.514Z,235
2016-06-03T06:31:18.517Z,220
2016-06-03T06:32:18.535Z,220
2016-06-03T06:33:18.553Z,210
2016-06-03T06:34:18.556Z,230
2016-06-03T06:35:18.544Z,210
2016-06-03T06:36:18.546Z,220
2016-06-03T06:37:18.564Z,215
2016-06-03T06:38:18.567Z,230
2016-06-03T06:39:18.444Z,235
2016-06-03T06:40:19.323Z,245
2016-06-03T06:41:18.747Z,255
2016-06-03T06:42:18.624Z,295
2016-06-03T06:43:18.596Z,325
2016-06-03T06:44:18.630Z,340
2016-06-03T06:45:18.632Z,395
2016-06-03T06:46:18.635Z,470
2016-06-03T06:47:18.678Z,445
2016-06-03T06:48:18.661Z,470
2016-06-03T06:49:18.707Z,445
2016-06-03T06:50:18.752Z,340
2016-06-03T06:51:18.782Z,440
2016-06-03T06:52:18.797Z,315
2016-06-03T06:53:18.825Z,445
2016-06-03T06:54:18.821Z,450
2016-06-03T06:55:19.492Z,440
2016-06-03T06:56:18.864Z,450
2016-06-03T06:57:18.932Z,450
2016-06-03T06:58:18.892Z,455
2016-06-03T06:59:18.913Z,450
2016-06-03T07:00:18.936Z,455
2016-06-03T07:01:18.942Z,455
2016-06-03T07:02:18.946Z,455
2016-06-03T07:03:18.778Z,445
2016-06-03T07:04:18.937Z,420
2016-06-03T07:05:19.004Z,410
2016-06-03T07:06:18.992Z,405
2016-06-03T07:07:18.995Z,265
2016-06-03T07:08:19.015Z,245
2016-06-03T07:09:18.987Z,240
2016-06-03T07:10:20.303Z,235
2016-06-03T07:11:19.026Z,245
2016-06-03T07:12:19.028Z,265
2016-06-03T07:13:19.031Z,325
2016-06-03T07:14:18.940Z,390
2016-06-03T07:15:19.036Z,400
2016-06-03T07:16:19.070Z,410
2016-06-03T07:17:19.103Z,395
2016-06-03T07:18:19.075Z,365
2016-06-03T07:19:19.078Z,325
2016-06-03T07:20:19.096Z,275
2016-06-03T07:21:19.099Z,245
2016-06-03T07:22:19.117Z,250
2016-06-03T07:23:19.136Z,275
2016-06-03T07:24:19.122Z,365
2016-06-03T07:25:20.267Z,420
2016-06-03T07:26:19.144Z,450
2016-06-03T07:27:19.131Z,420
2016-06-03T07:28:19.133Z,485
2016-06-03T07:29:19.183Z,485
2016-06-03T07:30:19.217Z,475
2016-06-03T07:31:19.048Z,470
2016-06-03T07:32:19.207Z,465
2016-06-03T07:33:19.194Z,460
2016-06-03T07:34:19.212Z,460
2016-06-03T07:35:19.215Z,485
2016-06-03T07:36:19.265Z,430
2016-06-03T07:37:19.283Z,470
2016-06-03T07:38:19.238Z,465
2016-06-03T07:39:19.257Z,460
2016-06-03T07:40:19.213Z,460
2016-06-03T07:41:19.513Z,460
2016-06-03T07:42:19.140Z,465
2016-06-03T07:43:19.298Z,350
2016-06-03T07:44:19.317Z,470
2016-06-03T07:45:19.304Z,470
2016-06-03T07:46:19.370Z,395
2016-06-03T07:47:19.340Z,320
2016-06-03T07:48:19.359Z,305
2016-06-03T07:49:19.346Z,320
2016-06-03T07:50:19.208Z,345
2016-06-03T07:51:19.398Z,435
2016-06-03T07:52:19.401Z,340
2016-06-03T07:53:19.403Z,295
2016-06-03T07:54:19.422Z,290
2016-06-03T07:55:19.816Z,300
2016-06-03T07:56:19.459Z,395
2016-06-03T07:57:19.446Z,450
2016-06-03T07:58:19.433Z,455
2016-06-03T07:59:19.482Z,460
2016-06-03T08:00:19.469Z,450
2016-06-03T08:01:19.472Z,435
2016-06-03T08:02:19.474Z,435
2016-06-03T08:03:19.494Z,440
2016-06-03T08:04:19.511Z,440
2016-06-03T08:05:19.483Z,465
2016-06-03T08:06:19.579Z,445
2016-06-03T08:07:19.504Z,430
2016-06-03T08:08:19.522Z,415
2016-06-03T08:09:19.556Z,420
2016-06-03T08:10:19.949Z,400
2016-06-03T08:11:19.577Z,370
2016-06-03T08:12:19.580Z,390
2016-06-03T08:13:19.582Z,395
2016-06-03T08:14:19.585Z,340
2016-06-03T08:15:19.620Z,325
2016-06-03T08:16:19.637Z,310
2016-06-03T08:17:19.625Z,305
2016-06-03T08:18:19.487Z,320
2016-06-03T08:19:19.661Z,335
2016-06-03T08:20:19.695Z,335
2016-06-03T08:21:19.651Z,335
2016-06-03T08:22:19.653Z,315
2016-06-03T08:23:19.687Z,320
2016-06-03T08:24:19.706Z,330
2016-06-03T08:25:19.912Z,335
2016-06-03T08:26:19.711Z,345
2016-06-03T08:27:19.714Z,360
2016-06-03T08:28:19.748Z,370
2016-06-03T08:29:19.735Z,375
2016-06-03T08:30:19.753Z,375
2016-06-03T08:31:19.772Z,375
2016-06-03T08:32:19.758Z,375
2016-06-03T08:33:19.777Z,380
2016-06-03T08:34:19.795Z,380
2016-06-03T08:35:19.767Z,385
2016-06-03T08:36:19.769Z,390
2016-06-03T08:37:19.788Z,395
2016-06-03T08:38:19.791Z,395
2016-06-03T08:39:19.840Z,400
2016-06-03T08:40:21.093Z,390
2016-06-03T08:41:19.892Z,390
2016-06-03T08:42:19.832Z,390
2016-06-03T08:43:19.804Z,385
2016-06-03T08:44:19.837Z,385
2016-06-03T08:45:19.872Z,385
2016-06-03T08:46:19.859Z,390
2016-06-03T08:47:19.908Z,390
2016-06-03T08:48:19.865Z,390
2016-06-03T08:49:19.898Z,390
2016-06-03T08:50:19.901Z,390
2016-06-03T08:51:19.904Z,395
2016-06-03T08:52:19.906Z,400
2016-06-03T08:53:19.924Z,400
2016-06-03T08:54:19.943Z,400
2016-06-03T08:55:20.320Z,400
2016-06-03T08:56:19.933Z,400
2016-06-03T08:57:19.967Z,395
2016-06-03T08:58:19.953Z,400
2016-06-03T08:59:19.941Z,400
2016-06-03T09:00:19.959Z,400
2016-06-03T09:01:19.993Z,390
2016-06-03T09:02:19.949Z,385
2016-06-03T09:03:20.014Z,375
2016-06-03T09:04:19.986Z,360
2016-06-03T09:05:20.005Z,355
2016-06-03T09:06:20.069Z,345
2016-06-03T09:07:20.040Z,340
2016-06-03T09:08:20.058Z,340
2016-06-03T09:09:19.999Z,340
2016-06-03T09:10:20.736Z,340
2016-06-03T09:11:20.098Z,340
2016-06-03T09:12:20.038Z,345
2016-06-03T09:13:19.932Z,355
2016-06-03T09:14:20.060Z,365
2016-06-03T09:15:20.124Z,370
2016-06-03T09:16:20.096Z,375
2016-06-03T09:17:20.099Z,380
2016-06-03T09:18:20.149Z,370
2016-06-03T09:19:20.135Z,365
2016-06-03T09:20:20.107Z,360
2016-06-03T09:21:20.125Z,355
2016-06-03T09:22:20.112Z,360
2016-06-03T09:23:20.131Z,350
2016-06-03T09:24:19.977Z,355
2016-06-03T09:25:20.542Z,355
2016-06-03T09:26:20.200Z,355
2016-06-03T09:27:20.142Z,365
2016-06-03T09:28:20.144Z,370
2016-06-03T09:29:20.021Z,370
2016-06-03T09:30:20.165Z,370
2016-06-03T09:31:20.214Z,370
2016-06-03T09:32:20.216Z,370
2016-06-03T09:33:20.188Z,375
2016-06-03T09:34:20.020Z,375
2016-06-03T09:35:20.225Z,375
2016-06-03T09:36:20.275Z,380
2016-06-03T09:37:20.199Z,370
2016-06-03T09:38:20.218Z,370
2016-06-03T09:39:20.236Z,365
2016-06-03T09:40:20.426Z,365
2016-06-03T09:41:20.444Z,365
2016-06-03T09:42:20.260Z,360
2016-06-03T09:43:20.263Z,360
2016-06-03T09:44:20.266Z,355
2016-06-03T09:45:20.268Z,350
2016-06-03T09:46:20.254Z,345
2016-06-03T09:47:20.305Z,345
2016-06-03T09:48:20.119Z,340
2016-06-03T09:49:20.310Z,340
2016-06-03T09:50:20.312Z,345
2016-06-03T09:51:20.346Z,345
2016-06-03T09:52:20.506Z,350
2016-06-03T09:53:20.304Z,360
2016-06-03T09:54:20.307Z,360
2016-06-03T09:55:20.732Z,365
2016-06-03T09:56:20.391Z,375
2016-06-03T09:57:20.362Z,370
2016-06-03T09:58:20.364Z,370
2016-06-03T09:59:20.352Z,370
2016-06-03T10:00:20.387Z,365
2016-06-03T10:01:20.373Z,365
2016-06-03T10:02:20.392Z,365
2016-06-03T10:03:20.394Z,360
2016-06-03T10:04:20.459Z,365
2016-06-03T10:05:20.274Z,375
2016-06-03T10:06:20.434Z,375
2016-06-03T10:07:20.436Z,385
2016-06-03T10:08:20.438Z,385
2016-06-03T10:09:20.442Z,390
2016-06-03T10:10:20.647Z,390
2016-06-03T10:11:20.432Z,390
2016-06-03T10:12:20.450Z,390
2016-06-03T10:13:20.452Z,390
2016-06-03T10:14:20.440Z,400
2016-06-03T10:15:20.551Z,400
2016-06-03T10:16:20.507Z,400
2016-06-03T10:17:20.494Z,405
2016-06-03T10:18:20.513Z,415
2016-06-03T10:19:20.484Z,420
2016-06-03T10:20:20.534Z,420
2016-06-03T10:21:20.521Z,425
2016-06-03T10:22:20.507Z,430
2016-06-03T10:23:20.542Z,435
2016-06-03T10:24:20.544Z,430
2016-06-03T10:25:20.937Z,425
2016-06-03T10:26:20.535Z,430
2016-06-03T10:27:20.537Z,425
2016-06-03T10:28:20.384Z,425
2016-06-03T10:29:20.573Z,425
2016-06-03T10:30:20.608Z,430
2016-06-03T10:31:20.673Z,430
2016-06-03T10:32:20.597Z,430
2016-06-03T10:33:20.600Z,435
2016-06-03T10:34:20.633Z,430
2016-06-03T10:35:20.589Z,440
2016-06-03T10:36:20.655Z,440
2016-06-03T10:37:20.610Z,440
2016-06-03T10:38:20.645Z,440
2016-06-03T10:39:20.647Z,435
2016-06-03T10:40:20.697Z,440
2016-06-03T10:41:20.699Z,455
2016-06-03T10:42:20.655Z,440
2016-06-03T10:43:20.705Z,435
2016-06-03T10:44:20.691Z,430
2016-06-03T10:45:20.694Z,430
2016-06-03T10:46:20.744Z,435
2016-06-03T10:47:20.716Z,435
2016-06-03T10:48:20.718Z,445
2016-06-03T10:49:20.690Z,445
2016-06-03T10:50:20.708Z,445
2016-06-03T10:51:20.727Z,440
2016-06-03T10:52:39.932Z,460
2016-06-03T10:53:20.575Z,460
2016-06-03T10:54:20.735Z,445
2016-06-03T10:55:20.784Z,445
2016-06-03T10:56:20.803Z,435
2016-06-03T10:57:20.774Z,425
2016-06-03T10:58:20.761Z,400
2016-06-03T10:59:20.779Z,390
2016-06-03T11:00:20.797Z,390
2016-06-03T11:01:20.816Z,400
2016-06-03T11:02:40.006Z,415
2016-06-03T11:03:20.806Z,420
2016-06-03T11:04:20.808Z,400
2016-06-03T11:05:20.842Z,375
2016-06-03T11:06:20.829Z,375
2016-06-03T11:07:20.832Z,370
2016-06-03T11:08:20.881Z,370
2016-06-03T11:09:20.853Z,370
2016-06-03T11:10:21.418Z,370
2016-06-03T11:11:20.936Z,365
2016-06-03T11:12:20.877Z,355
2016-06-03T11:13:20.738Z,345
2016-06-03T11:14:20.882Z,355
2016-06-03T11:15:20.899Z,345
2016-06-03T11:16:20.902Z,345
2016-06-03T11:17:33.640Z,345
2016-06-03T11:18:20.908Z,345
2016-06-03T11:19:20.927Z,360
2016-06-03T11:20:20.960Z,365
2016-06-03T11:21:20.948Z,365
2016-06-03T11:22:20.935Z,360
2016-06-03T11:23:20.984Z,365
2016-06-03T11:24:20.987Z,365
2016-06-03T11:25:21.348Z,365
2016-06-03T11:26:21.040Z,375
2016-06-03T11:27:20.996Z,385
2016-06-03T11:28:20.967Z,380
2016-06-03T11:29:21.001Z,375
2016-06-03T11:30:21.003Z,370
2016-06-03T11:31:20.990Z,370
2016-06-03T11:32:21.008Z,385
2016-06-03T11:33:21.027Z,380
2016-06-03T11:34:21.030Z,370
2016-06-03T11:35:21.017Z,365
2016-06-03T11:36:21.036Z,370
2016-06-03T11:37:33.803Z,380
2016-06-03T11:38:21.087Z,385
2016-06-03T11:39:20.919Z,395
2016-06-03T11:40:22.358Z,395
2016-06-03T11:41:21.330Z,390
2016-06-03T11:42:21.114Z,385
2016-06-03T11:43:21.085Z,380
2016-06-03T11:44:21.135Z,375
2016-06-03T11:45:21.121Z,375
2016-06-03T11:46:20.999Z,380
2016-06-03T11:47:33.877Z,385
2016-06-03T11:48:21.161Z,385
2016-06-03T11:49:21.149Z,380
2016-06-03T11:50:21.151Z,365
2016-06-03T11:51:21.013Z,345
2016-06-03T11:52:21.171Z,330
2016-06-03T11:53:21.190Z,325
2016-06-03T11:54:41.348Z,305
2016-06-03T11:55:21.992Z,305
2016-06-03T11:56:21.198Z,305
2016-06-03T11:57:21.185Z,310
2016-06-03T11:58:21.204Z,315
2016-06-03T11:59:21.237Z,325
2016-06-03T12:00:21.240Z,325
2016-06-03T12:01:20.946Z,325
2016-06-03T12:02:21.089Z,320
2016-06-03T12:03:21.092Z,315
2016-06-03T12:04:21.266Z,310
2016-06-03T12:05:21.270Z,315
2016-06-03T12:06:21.319Z,320
2016-06-03T12:07:21.321Z,325
2016-06-03T12:08:21.277Z,330
2016-06-03T12:09:24.342Z,340
2016-06-03T12:10:21.219Z,340
2016-06-03T12:11:21.223Z,340
2016-06-03T12:12:21.335Z,340
2016-06-03T12:13:21.306Z,340
2016-06-03T12:14:21.341Z,340
2016-06-03T12:15:21.343Z,355
2016-06-03T12:16:21.361Z,345
2016-06-03T12:17:21.379Z,335
2016-06-03T12:18:21.195Z,340
2016-06-03T12:19:27.651Z,340
2016-06-03T12:20:21.388Z,335
2016-06-03T12:21:21.421Z,325
2016-06-03T12:22:21.409Z,315
2016-06-03T12:23:21.412Z,305
2016-06-03T12:24:27.711Z,285
2016-06-03T12:25:21.432Z,275
2016-06-03T12:26:21.466Z,270
2016-06-03T12:27:21.484Z,270
2016-06-03T12:28:21.440Z,260
2016-06-03T12:29:24.506Z,260
2016-06-03T12:30:21.477Z,255
2016-06-03T12:31:21.479Z,245
2016-06-03T12:32:21.482Z,240
2016-06-03T12:33:21.485Z,235
2016-06-03T12:34:34.207Z,240
2016-06-03T12:35:21.522Z,245
2016-06-03T12:36:21.509Z,245
2016-06-03T12:37:21.558Z,245
2016-06-03T12:38:21.514Z,250
2016-06-03T12:39:24.564Z,250
2016-06-03T12:40:23.363Z,250
2016-06-03T12:41:21.803Z,250
2016-06-03T12:42:21.447Z,245
2016-06-03T12:43:21.591Z,240
2016-06-03T12:44:21.546Z,235
2016-06-03T12:45:21.580Z,230
2016-06-03T12:46:21.567Z,230
2016-06-03T12:47:21.569Z,225
2016-06-03T12:48:21.588Z,225
2016-06-03T12:49:34.357Z,215
2016-06-03T12:50:21.655Z,215
2016-06-03T12:51:21.471Z,215
2016-06-03T12:52:21.615Z,210
2016-06-03T12:53:21.460Z,210
2016-06-03T12:54:21.635Z,210
2016-06-03T12:55:21.559Z,205
2016-06-03T12:56:23.671Z,205
2016-06-03T12:57:21.659Z,200
2016-06-03T12:58:21.677Z,195
2016-06-03T12:59:21.509Z,195
2016-06-03T13:00:21.527Z,195
2016-06-03T13:01:21.732Z,190
2016-06-03T13:02:21.562Z,190
2016-06-03T13:03:21.534Z,185
2016-06-03T13:04:34.303Z,180
2016-06-03T13:05:21.712Z,180
2016-06-03T13:06:21.699Z,175
2016-06-03T13:07:21.702Z,175
2016-06-03T13:08:21.767Z,180
2016-06-03T13:09:21.738Z,185
2016-06-03T13:10:22.695Z,185
2016-06-03T13:11:21.791Z,185
2016-06-03T13:12:21.574Z,185
2016-06-03T13:13:21.764Z,190
2016-06-03T13:14:21.752Z,190
2016-06-03T13:15:21.786Z,185
2016-06-03T13:16:21.788Z,175
2016-06-03T13:17:40.963Z,165
2016-06-03T13:18:21.763Z,150
2016-06-03T13:19:21.812Z,140
2016-06-03T13:20:21.783Z,130
2016-06-03T13:21:21.802Z,125
2016-06-03T13:22:21.805Z,115
2016-06-03T13:23:21.823Z,115
2016-06-03T13:24:21.826Z,110
2016-06-03T13:25:22.374Z,110
2016-06-03T13:26:22.659Z,105
2016-06-03T13:27:21.677Z,100
2016-06-03T13:28:21.883Z,100
2016-06-03T13:29:21.824Z,100
2016-06-03T13:30:21.826Z,105
2016-06-03T13:31:21.860Z,105
2016-06-03T13:32:34.643Z,110
2016-06-03T13:33:21.553Z,115
2016-06-03T13:34:21.743Z,120
2016-06-03T13:35:21.870Z,125
2016-06-03T13:36:21.937Z,130
2016-06-03T13:37:21.861Z,130
2016-06-03T13:38:21.910Z,130
2016-06-03T13:39:21.866Z,130
2016-06-03T13:40:21.884Z,130
2016-06-03T13:41:41.136Z,130
2016-06-03T13:42:21.764Z,130
2016-06-03T13:43:21.752Z,135
2016-06-03T13:44:21.925Z,140
2016-06-03T13:45:21.945Z,140
2016-06-03T13:46:21.916Z,150
2016-06-03T13:47:21.918Z,150
2016-06-03T13:48:21.922Z,155
2016-06-03T13:49:21.924Z,165
2016-06-03T13:50:21.927Z,170
2016-06-03T13:51:22.179Z,170
2016-06-03T13:52:21.947Z,175
2016-06-03T13:53:21.982Z,175
2016-06-03T13:54:21.969Z,170
2016-06-03T13:55:22.971Z,175
2016-06-03T13:56:21.755Z,180
2016-06-03T13:57:21.976Z,180
2016-06-03T13:58:22.026Z,185
2016-06-03T13:59:21.982Z,185
2016-06-03T14:00:21.984Z,190
2016-06-03T14:01:22.004Z,190
2016-06-03T14:02:21.990Z,195
2016-06-03T14:03:21.977Z,200
2016-06-03T14:04:22.026Z,200